sensor_id;sensor_type;location;lat;lon;timestamp;P1;durP1;ratioP1;P2;durP2;ratioP2
11777;SDS011;5946;51.770;8.548;2022-12-29T00:01:48;3.00;;;1.43;;
11777;SDS011;5946;51.770;8.548;2022-12-29T00:04:14;1.30;;;1.20;;
11777;SDS011;5946;51.770;8.548;2022-12-29T00:06:40;1.30;;;1.20;;
11777;SDS011;5946;51.770;8.548;2022-12-29T00:09:06;1.30;;;1.20;;
11777;SDS011;5946;51.770;8.548;2022-12-29T00:11:32;1.20;;;1.10;;
11777;SDS011;5946;51.770;8.548;2022-12-29T00:13:58;1.37;;;1.27;;
11777;SDS011;5946;51.770;8.548;2022-12-29T00:16:44;2.03;;;1.33;;
11777;SDS011;5946;51.770;8.548;2022-12-29T00:19:11;1.10;;;1.00;;
11777;SDS011;5946;51.770;8.548;2022-12-29T00:21:56;2.60;;;1.00;;
11777;SDS011;5946;51.770;8.548;2022-12-29T00:24:41;3.33;;;1.30;;
11777;SDS011;5946;51.770;8.548;2022-12-29T00:27:28;1.03;;;0.97;;
11777;SDS011;5946;51.770;8.548;2022-12-29T00:30:14;1.87;;;1.00;;
11777;SDS011;5946;51.770;8.548;2022-12-29T00:32:59;3.03;;;1.00;;
11777;SDS011;5946;51.770;8.548;2022-12-29T00:35:53;1.03;;;1.00;;
11777;SDS011;5946;51.770;8.548;2022-12-29T00:38:20;1.70;;;0.93;;
11777;SDS011;5946;51.770;8.548;2022-12-29T00:41:05;0.90;;;0.90;;
11777;SDS011;5946;51.770;8.548;2022-12-29T00:43:50;0.80;;;0.80;;
11777;SDS011;5946;51.770;8.548;2022-12-29T00:46:34;2.03;;;0.97;;
11777;SDS011;5946;51.770;8.548;2022-12-29T00:49:00;1.37;;;1.00;;
11777;SDS011;5946;51.770;8.548;2022-12-29T00:51:45;1.17;;;0.80;;
11777;SDS011;5946;51.770;8.548;2022-12-29T00:54:11;1.17;;;0.90;;
11777;SDS011;5946;51.770;8.548;2022-12-29T00:56:37;1.10;;;1.00;;
11777;SDS011;5946;51.770;8.548;2022-12-29T00:59:04;1.53;;;1.00;;
11777;SDS011;5946;51.770;8.548;2022-12-29T01:01:30;2.00;;;0.93;;
11777;SDS011;5946;51.770;8.548;2022-12-29T01:03:56;0.83;;;0.83;;
11777;SDS011;5946;51.770;8.548;2022-12-29T01:06:22;0.87;;;0.80;;
11777;SDS011;5946;51.770;8.548;2022-12-29T01:08:49;0.97;;;0.90;;
11777;SDS011;5946;51.770;8.548;2022-12-29T01:11:35;3.57;;;2.60;;
11777;SDS011;5946;51.770;8.548;2022-12-29T01:14:00;2.33;;;1.50;;
11777;SDS011;5946;51.770;8.548;2022-12-29T01:16:26;1.70;;;1.60;;
11777;SDS011;5946;51.770;8.548;2022-12-29T01:18:52;2.13;;;1.70;;
11777;SDS011;5946;51.770;8.548;2022-12-29T01:21:18;2.10;;;1.20;;
11777;SDS011;5946;51.770;8.548;2022-12-29T01:23:44;2.80;;;1.03;;
11777;SDS011;5946;51.770;8.548;2022-12-29T01:26:11;1.37;;;1.20;;
11777;SDS011;5946;51.770;8.548;2022-12-29T01:28:37;1.60;;;1.30;;
11777;SDS011;5946;51.770;8.548;2022-12-29T01:31:05;1.20;;;0.93;;
11777;SDS011;5946;51.770;8.548;2022-12-29T01:33:31;2.37;;;1.00;;
11777;SDS011;5946;51.770;8.548;2022-12-29T01:36:00;1.43;;;1.00;;
11777;SDS011;5946;51.770;8.548;2022-12-29T01:38:26;1.77;;;1.10;;
11777;SDS011;5946;51.770;8.548;2022-12-29T01:40:52;1.20;;;1.10;;
11777;SDS011;5946;51.770;8.548;2022-12-29T01:43:18;2.30;;;1.33;;
11777;SDS011;5946;51.770;8.548;2022-12-29T01:45:45;0.80;;;0.80;;
11777;SDS011;5946;51.770;8.548;2022-12-29T01:48:14;1.30;;;1.20;;
11777;SDS011;5946;51.770;8.548;2022-12-29T01:50:45;2.23;;;1.70;;
11777;SDS011;5946;51.770;8.548;2022-12-29T01:53:16;3.63;;;2.13;;
11777;SDS011;5946;51.770;8.548;2022-12-29T01:55:46;1.70;;;1.60;;
11777;SDS011;5946;51.770;8.548;2022-12-29T01:58:12;1.73;;;1.40;;
11777;SDS011;5946;51.770;8.548;2022-12-29T02:00:40;2.87;;;0.90;;
11777;SDS011;5946;51.770;8.548;2022-12-29T02:03:06;0.90;;;0.80;;
11777;SDS011;5946;51.770;8.548;2022-12-29T02:07:58;1.57;;;0.90;;
11777;SDS011;5946;51.770;8.548;2022-12-29T02:10:25;2.80;;;0.90;;
11777;SDS011;5946;51.770;8.548;2022-12-29T02:12:53;1.13;;;0.70;;
11777;SDS011;5946;51.770;8.548;2022-12-29T02:15:21;0.73;;;0.73;;
11777;SDS011;5946;51.770;8.548;2022-12-29T02:31:30;0.80;;;0.40;;
11777;SDS011;5946;51.770;8.548;2022-12-29T02:36:46;0.87;;;0.43;;
11777;SDS011;5946;51.770;8.548;2022-12-29T02:44:52;0.90;;;0.70;;
11777;SDS011;5946;51.770;8.548;2022-12-29T02:47:24;0.63;;;0.43;;
11777;SDS011;5946;51.770;8.548;2022-12-29T02:49:59;0.43;;;0.43;;
11777;SDS011;5946;51.770;8.548;2022-12-29T02:52:36;0.83;;;0.50;;
11777;SDS011;5946;51.770;8.548;2022-12-29T02:55:04;0.53;;;0.50;;
11777;SDS011;5946;51.770;8.548;2022-12-29T02:57:33;1.47;;;0.60;;
11777;SDS011;5946;51.770;8.548;2022-12-29T03:00:07;0.57;;;0.50;;
11777;SDS011;5946;51.770;8.548;2022-12-29T03:05:09;1.67;;;0.60;;
11777;SDS011;5946;51.770;8.548;2022-12-29T03:13:01;0.63;;;0.63;;
11777;SDS011;5946;51.770;8.548;2022-12-29T03:16:07;1.10;;;0.60;;
11777;SDS011;5946;51.770;8.548;2022-12-29T03:18:39;0.50;;;0.50;;
11777;SDS011;5946;51.770;8.548;2022-12-29T03:21:11;0.50;;;0.40;;
11777;SDS011;5946;51.770;8.548;2022-12-29T03:23:38;0.57;;;0.57;;
11777;SDS011;5946;51.770;8.548;2022-12-29T03:26:06;0.50;;;0.50;;
11777;SDS011;5946;51.770;8.548;2022-12-29T03:28:35;0.40;;;0.40;;
11777;SDS011;5946;51.770;8.548;2022-12-29T03:31:03;0.60;;;0.60;;
11777;SDS011;5946;51.770;8.548;2022-12-29T03:33:29;1.23;;;0.40;;
11777;SDS011;5946;51.770;8.548;2022-12-29T03:35:57;0.43;;;0.43;;
11777;SDS011;5946;51.770;8.548;2022-12-29T03:40:56;1.53;;;0.70;;
11777;SDS011;5946;51.770;8.548;2022-12-29T03:43:23;0.67;;;0.67;;
11777;SDS011;5946;51.770;8.548;2022-12-29T03:45:50;1.23;;;0.50;;
11777;SDS011;5946;51.770;8.548;2022-12-29T03:48:16;0.83;;;0.57;;
11777;SDS011;5946;51.770;8.548;2022-12-29T03:50:42;0.80;;;0.60;;
11777;SDS011;5946;51.770;8.548;2022-12-29T03:53:08;0.50;;;0.50;;
11777;SDS011;5946;51.770;8.548;2022-12-29T03:55:34;0.80;;;0.60;;
11777;SDS011;5946;51.770;8.548;2022-12-29T03:57:59;1.83;;;0.50;;
11777;SDS011;5946;51.770;8.548;2022-12-29T04:00:25;0.77;;;0.77;;
11777;SDS011;5946;51.770;8.548;2022-12-29T04:02:51;0.80;;;0.60;;
11777;SDS011;5946;51.770;8.548;2022-12-29T04:05:17;0.50;;;0.50;;
11777;SDS011;5946;51.770;8.548;2022-12-29T04:07:44;1.13;;;0.70;;
11777;SDS011;5946;51.770;8.548;2022-12-29T04:10:10;0.97;;;0.70;;
11777;SDS011;5946;51.770;8.548;2022-12-29T04:12:36;1.90;;;0.70;;
11777;SDS011;5946;51.770;8.548;2022-12-29T04:15:02;1.77;;;0.60;;
11777;SDS011;5946;51.770;8.548;2022-12-29T04:17:27;1.07;;;0.87;;
11777;SDS011;5946;51.770;8.548;2022-12-29T04:19:53;0.87;;;0.70;;
11777;SDS011;5946;51.770;8.548;2022-12-29T04:22:39;1.43;;;0.70;;
11777;SDS011;5946;51.770;8.548;2022-12-29T04:25:05;2.23;;;0.60;;
11777;SDS011;5946;51.770;8.548;2022-12-29T04:27:31;0.70;;;0.60;;
11777;SDS011;5946;51.770;8.548;2022-12-29T04:29:57;1.23;;;1.00;;
11777;SDS011;5946;51.770;8.548;2022-12-29T04:32:23;2.10;;;1.20;;
11777;SDS011;5946;51.770;8.548;2022-12-29T04:34:49;1.43;;;0.90;;
11777;SDS011;5946;51.770;8.548;2022-12-29T04:37:15;0.80;;;0.80;;
11777;SDS011;5946;51.770;8.548;2022-12-29T04:39:41;1.67;;;1.03;;
11777;SDS011;5946;51.770;8.548;2022-12-29T04:42:07;2.23;;;1.40;;
11777;SDS011;5946;51.770;8.548;2022-12-29T04:44:33;1.10;;;0.73;;
11777;SDS011;5946;51.770;8.548;2022-12-29T04:46:59;1.53;;;1.00;;
11777;SDS011;5946;51.770;8.548;2022-12-29T04:49:25;2.50;;;1.10;;
11777;SDS011;5946;51.770;8.548;2022-12-29T04:51:51;1.33;;;1.23;;
11777;SDS011;5946;51.770;8.548;2022-12-29T04:54:16;1.13;;;1.03;;
11777;SDS011;5946;51.770;8.548;2022-12-29T04:56:42;3.40;;;2.20;;
11777;SDS011;5946;51.770;8.548;2022-12-29T04:59:08;3.00;;;2.70;;
11777;SDS011;5946;51.770;8.548;2022-12-29T05:01:34;4.63;;;2.30;;
11777;SDS011;5946;51.770;8.548;2022-12-29T05:04:00;1.00;;;0.80;;
11777;SDS011;5946;51.770;8.548;2022-12-29T05:06:26;0.70;;;0.50;;
11777;SDS011;5946;51.770;8.548;2022-12-29T05:08:52;0.57;;;0.57;;
11777;SDS011;5946;51.770;8.548;2022-12-29T05:11:18;0.50;;;0.50;;
11777;SDS011;5946;51.770;8.548;2022-12-29T05:13:45;0.60;;;0.60;;
11777;SDS011;5946;51.770;8.548;2022-12-29T05:16:11;0.60;;;0.60;;
11777;SDS011;5946;51.770;8.548;2022-12-29T05:18:37;0.70;;;0.70;;
11777;SDS011;5946;51.770;8.548;2022-12-29T05:21:03;0.53;;;0.53;;
11777;SDS011;5946;51.770;8.548;2022-12-29T05:23:29;0.50;;;0.50;;
11777;SDS011;5946;51.770;8.548;2022-12-29T05:25:55;1.30;;;0.40;;
11777;SDS011;5946;51.770;8.548;2022-12-29T05:28:21;3.77;;;0.70;;
11777;SDS011;5946;51.770;8.548;2022-12-29T05:30:50;1.03;;;0.60;;
11777;SDS011;5946;51.770;8.548;2022-12-29T05:33:17;0.60;;;0.50;;
11777;SDS011;5946;51.770;8.548;2022-12-29T05:35:43;0.50;;;0.50;;
11777;SDS011;5946;51.770;8.548;2022-12-29T05:38:09;1.37;;;0.47;;
11777;SDS011;5946;51.770;8.548;2022-12-29T05:40:35;0.50;;;0.50;;
11777;SDS011;5946;51.770;8.548;2022-12-29T05:43:00;0.43;;;0.43;;
11777;SDS011;5946;51.770;8.548;2022-12-29T05:45:26;0.60;;;0.53;;
11777;SDS011;5946;51.770;8.548;2022-12-29T05:47:52;0.60;;;0.60;;
11777;SDS011;5946;51.770;8.548;2022-12-29T05:50:18;0.50;;;0.50;;
11777;SDS011;5946;51.770;8.548;2022-12-29T05:52:44;0.50;;;0.43;;
11777;SDS011;5946;51.770;8.548;2022-12-29T05:55:11;0.40;;;0.40;;
11777;SDS011;5946;51.770;8.548;2022-12-29T05:57:37;0.97;;;0.90;;
11777;SDS011;5946;51.770;8.548;2022-12-29T06:00:03;2.37;;;0.60;;
11777;SDS011;5946;51.770;8.548;2022-12-29T06:02:29;0.90;;;0.60;;
11777;SDS011;5946;51.770;8.548;2022-12-29T06:04:55;0.60;;;0.50;;
11777;SDS011;5946;51.770;8.548;2022-12-29T06:07:21;0.50;;;0.50;;
11777;SDS011;5946;51.770;8.548;2022-12-29T06:09:47;1.73;;;0.70;;
11777;SDS011;5946;51.770;8.548;2022-12-29T06:12:13;2.57;;;0.60;;
11777;SDS011;5946;51.770;8.548;2022-12-29T06:14:39;2.57;;;0.70;;
11777;SDS011;5946;51.770;8.548;2022-12-29T06:17:05;5.73;;;0.77;;
11777;SDS011;5946;51.770;8.548;2022-12-29T06:19:31;3.70;;;0.67;;
11777;SDS011;5946;51.770;8.548;2022-12-29T06:21:57;1.30;;;0.70;;
11777;SDS011;5946;51.770;8.548;2022-12-29T06:24:23;1.27;;;0.50;;
11777;SDS011;5946;51.770;8.548;2022-12-29T06:26:49;0.93;;;0.60;;
11777;SDS011;5946;51.770;8.548;2022-12-29T06:29:15;0.50;;;0.50;;
11777;SDS011;5946;51.770;8.548;2022-12-29T06:31:42;0.70;;;0.60;;
11777;SDS011;5946;51.770;8.548;2022-12-29T06:34:10;0.50;;;0.50;;
11777;SDS011;5946;51.770;8.548;2022-12-29T06:36:36;0.70;;;0.57;;
11777;SDS011;5946;51.770;8.548;2022-12-29T06:39:02;1.07;;;0.70;;
11777;SDS011;5946;51.770;8.548;2022-12-29T06:41:28;1.13;;;0.70;;
11777;SDS011;5946;51.770;8.548;2022-12-29T06:43:54;1.37;;;0.60;;
11777;SDS011;5946;51.770;8.548;2022-12-29T06:46:20;1.33;;;0.70;;
11777;SDS011;5946;51.770;8.548;2022-12-29T06:48:46;1.53;;;0.73;;
11777;SDS011;5946;51.770;8.548;2022-12-29T06:51:12;0.93;;;0.83;;
11777;SDS011;5946;51.770;8.548;2022-12-29T06:53:38;1.73;;;0.70;;
11777;SDS011;5946;51.770;8.548;2022-12-29T06:56:04;2.20;;;1.30;;
11777;SDS011;5946;51.770;8.548;2022-12-29T06:58:30;1.03;;;0.70;;
11777;SDS011;5946;51.770;8.548;2022-12-29T07:00:56;1.60;;;0.70;;
11777;SDS011;5946;51.770;8.548;2022-12-29T07:03:22;0.70;;;0.70;;
11777;SDS011;5946;51.770;8.548;2022-12-29T07:05:48;0.80;;;0.80;;
11777;SDS011;5946;51.770;8.548;2022-12-29T07:08:14;0.73;;;0.70;;
11777;SDS011;5946;51.770;8.548;2022-12-29T07:10:40;1.23;;;0.73;;
11777;SDS011;5946;51.770;8.548;2022-12-29T07:13:06;4.00;;;0.80;;
11777;SDS011;5946;51.770;8.548;2022-12-29T07:15:32;0.70;;;0.67;;
11777;SDS011;5946;51.770;8.548;2022-12-29T07:17:58;2.57;;;0.80;;
11777;SDS011;5946;51.770;8.548;2022-12-29T07:20:24;2.73;;;0.87;;
11777;SDS011;5946;51.770;8.548;2022-12-29T07:22:50;0.70;;;0.50;;
11777;SDS011;5946;51.770;8.548;2022-12-29T07:25:16;0.70;;;0.70;;
11777;SDS011;5946;51.770;8.548;2022-12-29T07:27:42;0.73;;;0.63;;
11777;SDS011;5946;51.770;8.548;2022-12-29T07:30:08;2.17;;;0.60;;
11777;SDS011;5946;51.770;8.548;2022-12-29T07:32:34;1.33;;;0.70;;
11777;SDS011;5946;51.770;8.548;2022-12-29T07:35:00;2.80;;;0.67;;
11777;SDS011;5946;51.770;8.548;2022-12-29T07:37:26;0.60;;;0.60;;
11777;SDS011;5946;51.770;8.548;2022-12-29T07:39:52;0.67;;;0.60;;
11777;SDS011;5946;51.770;8.548;2022-12-29T07:42:18;0.60;;;0.60;;
11777;SDS011;5946;51.770;8.548;2022-12-29T07:44:44;1.43;;;0.70;;
11777;SDS011;5946;51.770;8.548;2022-12-29T07:47:10;1.80;;;0.80;;
11777;SDS011;5946;51.770;8.548;2022-12-29T07:49:36;0.53;;;0.53;;
11777;SDS011;5946;51.770;8.548;2022-12-29T07:52:02;1.67;;;0.70;;
11777;SDS011;5946;51.770;8.548;2022-12-29T07:54:28;1.07;;;0.80;;
11777;SDS011;5946;51.770;8.548;2022-12-29T07:56:54;6.03;;;3.50;;
11777;SDS011;5946;51.770;8.548;2022-12-29T07:59:20;7.87;;;5.03;;
11777;SDS011;5946;51.770;8.548;2022-12-29T08:01:46;9.07;;;5.67;;
11777;SDS011;5946;51.770;8.548;2022-12-29T08:04:12;1.60;;;1.03;;
11777;SDS011;5946;51.770;8.548;2022-12-29T08:06:38;1.10;;;0.90;;
11777;SDS011;5946;51.770;8.548;2022-12-29T08:09:04;3.90;;;1.20;;
11777;SDS011;5946;51.770;8.548;2022-12-29T08:11:30;16.37;;;8.47;;
11777;SDS011;5946;51.770;8.548;2022-12-29T08:13:56;2.33;;;1.40;;
11777;SDS011;5946;51.770;8.548;2022-12-29T08:16:22;1.97;;;1.00;;
11777;SDS011;5946;51.770;8.548;2022-12-29T08:18:48;1.50;;;1.00;;
11777;SDS011;5946;51.770;8.548;2022-12-29T08:21:15;8.63;;;7.73;;
11777;SDS011;5946;51.770;8.548;2022-12-29T08:23:41;13.60;;;11.60;;
11777;SDS011;5946;51.770;8.548;2022-12-29T08:26:07;3.90;;;2.03;;
11777;SDS011;5946;51.770;8.548;2022-12-29T08:28:32;1.77;;;0.90;;
11777;SDS011;5946;51.770;8.548;2022-12-29T08:30:59;2.87;;;0.77;;
11777;SDS011;5946;51.770;8.548;2022-12-29T08:33:25;2.67;;;1.17;;
11777;SDS011;5946;51.770;8.548;2022-12-29T08:35:52;1.80;;;1.27;;
11777;SDS011;5946;51.770;8.548;2022-12-29T08:38:18;1.10;;;1.00;;
11777;SDS011;5946;51.770;8.548;2022-12-29T08:40:44;2.23;;;1.00;;
11777;SDS011;5946;51.770;8.548;2022-12-29T08:43:10;1.57;;;0.93;;
11777;SDS011;5946;51.770;8.548;2022-12-29T08:45:36;1.57;;;1.13;;
11777;SDS011;5946;51.770;8.548;2022-12-29T08:48:02;1.97;;;1.00;;
11777;SDS011;5946;51.770;8.548;2022-12-29T08:50:28;1.83;;;1.13;;
11777;SDS011;5946;51.770;8.548;2022-12-29T08:52:53;1.70;;;1.10;;
11777;SDS011;5946;51.770;8.548;2022-12-29T08:55:19;1.53;;;1.10;;
11777;SDS011;5946;51.770;8.548;2022-12-29T08:57:45;1.40;;;1.17;;
11777;SDS011;5946;51.770;8.548;2022-12-29T09:00:11;2.50;;;0.90;;
11777;SDS011;5946;51.770;8.548;2022-12-29T09:02:39;1.77;;;1.00;;
11777;SDS011;5946;51.770;8.548;2022-12-29T09:05:05;2.60;;;0.97;;
11777;SDS011;5946;51.770;8.548;2022-12-29T09:07:31;2.77;;;1.10;;
11777;SDS011;5946;51.770;8.548;2022-12-29T09:09:57;2.70;;;1.10;;
11777;SDS011;5946;51.770;8.548;2022-12-29T09:12:23;2.23;;;1.30;;
11777;SDS011;5946;51.770;8.548;2022-12-29T09:14:49;2.30;;;0.90;;
11777;SDS011;5946;51.770;8.548;2022-12-29T09:17:15;4.77;;;1.07;;
11777;SDS011;5946;51.770;8.548;2022-12-29T09:20:00;1.67;;;0.90;;
11777;SDS011;5946;51.770;8.548;2022-12-29T09:22:26;2.00;;;1.13;;
11777;SDS011;5946;51.770;8.548;2022-12-29T09:24:52;2.83;;;0.80;;
11777;SDS011;5946;51.770;8.548;2022-12-29T09:27:17;1.93;;;0.90;;
11777;SDS011;5946;51.770;8.548;2022-12-29T09:29:43;5.37;;;1.00;;
11777;SDS011;5946;51.770;8.548;2022-12-29T09:32:09;2.40;;;1.03;;
11777;SDS011;5946;51.770;8.548;2022-12-29T09:34:35;3.17;;;1.10;;
11777;SDS011;5946;51.770;8.548;2022-12-29T09:37:01;4.27;;;1.00;;
11777;SDS011;5946;51.770;8.548;2022-12-29T09:39:27;3.50;;;1.20;;
11777;SDS011;5946;51.770;8.548;2022-12-29T09:47:22;3.30;;;1.17;;
11777;SDS011;5946;51.770;8.548;2022-12-29T09:49:50;1.63;;;1.10;;
11777;SDS011;5946;51.770;8.548;2022-12-29T09:52:25;2.90;;;1.00;;
11777;SDS011;5946;51.770;8.548;2022-12-29T09:57:24;3.33;;;1.20;;
11777;SDS011;5946;51.770;8.548;2022-12-29T09:59:52;2.13;;;1.27;;
11777;SDS011;5946;51.770;8.548;2022-12-29T10:02:23;1.93;;;1.07;;
11777;SDS011;5946;51.770;8.548;2022-12-29T10:04:54;4.80;;;1.00;;
11777;SDS011;5946;51.770;8.548;2022-12-29T10:07:24;3.20;;;1.23;;
11777;SDS011;5946;51.770;8.548;2022-12-29T10:14:58;5.03;;;1.50;;
11777;SDS011;5946;51.770;8.548;2022-12-29T10:17:42;4.00;;;1.30;;
11777;SDS011;5946;51.770;8.548;2022-12-29T10:25:12;4.23;;;1.10;;
11777;SDS011;5946;51.770;8.548;2022-12-29T10:27:40;4.57;;;1.00;;
11777;SDS011;5946;51.770;8.548;2022-12-29T10:30:11;3.93;;;1.20;;
11777;SDS011;5946;51.770;8.548;2022-12-29T10:32:38;3.03;;;0.83;;
11777;SDS011;5946;51.770;8.548;2022-12-29T10:35:29;2.20;;;1.10;;
11777;SDS011;5946;51.770;8.548;2022-12-29T10:40:36;3.63;;;1.30;;
11777;SDS011;5946;51.770;8.548;2022-12-29T10:43:07;2.13;;;1.10;;
11777;SDS011;5946;51.770;8.548;2022-12-29T10:45:37;3.10;;;1.10;;
11777;SDS011;5946;51.770;8.548;2022-12-29T10:48:05;4.37;;;1.20;;
11777;SDS011;5946;51.770;8.548;2022-12-29T10:50:33;3.13;;;1.07;;
11777;SDS011;5946;51.770;8.548;2022-12-29T10:53:00;3.67;;;1.10;;
11777;SDS011;5946;51.770;8.548;2022-12-29T10:55:29;3.43;;;1.20;;
11777;SDS011;5946;51.770;8.548;2022-12-29T10:57:56;7.03;;;1.57;;
11777;SDS011;5946;51.770;8.548;2022-12-29T11:00:25;3.03;;;1.20;;
11777;SDS011;5946;51.770;8.548;2022-12-29T11:08:08;4.97;;;1.30;;
11777;SDS011;5946;51.770;8.548;2022-12-29T11:10:39;5.20;;;1.63;;
11777;SDS011;5946;51.770;8.548;2022-12-29T11:13:13;4.37;;;1.70;;
11777;SDS011;5946;51.770;8.548;2022-12-29T11:18:30;3.90;;;1.70;;
11777;SDS011;5946;51.770;8.548;2022-12-29T11:20:58;3.43;;;1.30;;
11777;SDS011;5946;51.770;8.548;2022-12-29T11:23:29;6.87;;;1.83;;
11777;SDS011;5946;51.770;8.548;2022-12-29T11:28:42;4.07;;;1.70;;
11777;SDS011;5946;51.770;8.548;2022-12-29T11:31:08;5.53;;;1.47;;
11777;SDS011;5946;51.770;8.548;2022-12-29T11:33:36;4.70;;;1.57;;
11777;SDS011;5946;51.770;8.548;2022-12-29T11:36:04;3.37;;;1.43;;
11777;SDS011;5946;51.770;8.548;2022-12-29T11:38:34;5.37;;;1.47;;
11777;SDS011;5946;51.770;8.548;2022-12-29T11:41:01;3.17;;;1.57;;
11777;SDS011;5946;51.770;8.548;2022-12-29T11:43:31;3.23;;;1.70;;
11777;SDS011;5946;51.770;8.548;2022-12-29T11:45:58;3.83;;;1.47;;
11777;SDS011;5946;51.770;8.548;2022-12-29T11:48:25;5.80;;;1.73;;
11777;SDS011;5946;51.770;8.548;2022-12-29T11:50:55;7.70;;;1.60;;
11777;SDS011;5946;51.770;8.548;2022-12-29T11:53:23;5.37;;;1.77;;
11777;SDS011;5946;51.770;8.548;2022-12-29T11:55:54;3.13;;;1.50;;
11777;SDS011;5946;51.770;8.548;2022-12-29T11:58:20;6.83;;;1.87;;
11777;SDS011;5946;51.770;8.548;2022-12-29T12:00:46;6.97;;;1.80;;
11777;SDS011;5946;51.770;8.548;2022-12-29T12:03:21;4.37;;;1.67;;
11777;SDS011;5946;51.770;8.548;2022-12-29T12:08:36;7.20;;;1.77;;
11777;SDS011;5946;51.770;8.548;2022-12-29T12:11:12;4.73;;;1.60;;
11777;SDS011;5946;51.770;8.548;2022-12-29T12:13:47;5.57;;;1.63;;
11777;SDS011;5946;51.770;8.548;2022-12-29T12:16:18;4.07;;;1.67;;
11777;SDS011;5946;51.770;8.548;2022-12-29T12:18:46;5.77;;;1.80;;
11777;SDS011;5946;51.770;8.548;2022-12-29T12:21:15;8.47;;;1.93;;
11777;SDS011;5946;51.770;8.548;2022-12-29T12:23:59;5.83;;;1.90;;
11777;SDS011;5946;51.770;8.548;2022-12-29T12:26:30;6.67;;;2.20;;
11777;SDS011;5946;51.770;8.548;2022-12-29T12:29:04;13.00;;;4.90;;
11777;SDS011;5946;51.770;8.548;2022-12-29T12:31:54;8.10;;;2.53;;
11777;SDS011;5946;51.770;8.548;2022-12-29T12:34:32;4.67;;;1.73;;
11777;SDS011;5946;51.770;8.548;2022-12-29T12:40:01;5.23;;;1.63;;
11777;SDS011;5946;51.770;8.548;2022-12-29T12:47:50;5.90;;;2.20;;
11777;SDS011;5946;51.770;8.548;2022-12-29T12:50:30;4.90;;;1.67;;
11777;SDS011;5946;51.770;8.548;2022-12-29T12:58:40;14.50;;;6.63;;
11777;SDS011;5946;51.770;8.548;2022-12-29T13:03:44;5.20;;;1.70;;
11777;SDS011;5946;51.770;8.548;2022-12-29T13:06:15;4.47;;;1.33;;
11777;SDS011;5946;51.770;8.548;2022-12-29T13:11:28;6.43;;;1.63;;
11777;SDS011;5946;51.770;8.548;2022-12-29T13:14:09;5.83;;;1.33;;
11777;SDS011;5946;51.770;8.548;2022-12-29T13:16:55;4.70;;;1.57;;
11777;SDS011;5946;51.770;8.548;2022-12-29T13:19:30;6.50;;;1.70;;
11777;SDS011;5946;51.770;8.548;2022-12-29T13:22:00;7.73;;;1.30;;
11777;SDS011;5946;51.770;8.548;2022-12-29T13:29:50;6.00;;;1.37;;
11777;SDS011;5946;51.770;8.548;2022-12-29T13:32:23;5.47;;;1.57;;
11777;SDS011;5946;51.770;8.548;2022-12-29T13:35:05;4.33;;;1.30;;
11777;SDS011;5946;51.770;8.548;2022-12-29T13:37:39;4.80;;;1.23;;
11777;SDS011;5946;51.770;8.548;2022-12-29T13:40:12;6.07;;;1.47;;
11777;SDS011;5946;51.770;8.548;2022-12-29T13:42:40;5.00;;;1.23;;
11777;SDS011;5946;51.770;8.548;2022-12-29T13:45:07;6.43;;;1.57;;
11777;SDS011;5946;51.770;8.548;2022-12-29T13:47:40;5.87;;;1.40;;
11777;SDS011;5946;51.770;8.548;2022-12-29T13:50:17;6.17;;;1.30;;
11777;SDS011;5946;51.770;8.548;2022-12-29T13:52:47;3.57;;;1.00;;
11777;SDS011;5946;51.770;8.548;2022-12-29T13:55:18;4.57;;;1.33;;
11777;SDS011;5946;51.770;8.548;2022-12-29T14:00:33;4.60;;;1.30;;
11777;SDS011;5946;51.770;8.548;2022-12-29T14:05:30;7.07;;;1.87;;
11777;SDS011;5946;51.770;8.548;2022-12-29T14:07:57;5.30;;;1.20;;
11777;SDS011;5946;51.770;8.548;2022-12-29T14:13:02;5.23;;;1.70;;
11777;SDS011;5946;51.770;8.548;2022-12-29T14:15:28;8.17;;;1.57;;
11777;SDS011;5946;51.770;8.548;2022-12-29T14:18:28;5.73;;;1.53;;
11777;SDS011;5946;51.770;8.548;2022-12-29T14:20:50;5.20;;;1.57;;
11777;SDS011;5946;51.770;8.548;2022-12-29T14:23:26;10.00;;;1.53;;
11777;SDS011;5946;51.770;8.548;2022-12-29T14:28:25;8.90;;;1.93;;
11777;SDS011;5946;51.770;8.548;2022-12-29T14:30:52;9.07;;;1.60;;
11777;SDS011;5946;51.770;8.548;2022-12-29T14:33:19;6.13;;;1.57;;
11777;SDS011;5946;51.770;8.548;2022-12-29T14:35:45;5.77;;;1.50;;
11777;SDS011;5946;51.770;8.548;2022-12-29T14:38:27;5.93;;;1.50;;
11777;SDS011;5946;51.770;8.548;2022-12-29T14:41:15;7.27;;;1.60;;
11777;SDS011;5946;51.770;8.548;2022-12-29T14:43:40;5.97;;;1.40;;
11777;SDS011;5946;51.770;8.548;2022-12-29T14:46:06;9.17;;;2.50;;
11777;SDS011;5946;51.770;8.548;2022-12-29T14:48:35;6.87;;;1.87;;
11777;SDS011;5946;51.770;8.548;2022-12-29T14:51:02;7.77;;;2.07;;
11777;SDS011;5946;51.770;8.548;2022-12-29T14:54:01;8.00;;;3.43;;
11777;SDS011;5946;51.770;8.548;2022-12-29T14:56:24;9.83;;;2.27;;
11777;SDS011;5946;51.770;8.548;2022-12-29T14:58:54;7.37;;;2.40;;
11777;SDS011;5946;51.770;8.548;2022-12-29T15:01:38;5.07;;;1.80;;
11777;SDS011;5946;51.770;8.548;2022-12-29T15:04:13;8.43;;;2.53;;
11777;SDS011;5946;51.770;8.548;2022-12-29T15:06:40;6.93;;;1.73;;
11777;SDS011;5946;51.770;8.548;2022-12-29T15:14:01;4.80;;;1.70;;
11777;SDS011;5946;51.770;8.548;2022-12-29T15:18:53;5.70;;;1.90;;
11777;SDS011;5946;51.770;8.548;2022-12-29T15:21:24;7.70;;;1.93;;
11777;SDS011;5946;51.770;8.548;2022-12-29T15:23:50;8.50;;;1.77;;
11777;SDS011;5946;51.770;8.548;2022-12-29T15:26:16;5.60;;;1.47;;
11777;SDS011;5946;51.770;8.548;2022-12-29T15:28:47;9.53;;;2.03;;
11777;SDS011;5946;51.770;8.548;2022-12-29T15:31:14;5.77;;;1.90;;
11777;SDS011;5946;51.770;8.548;2022-12-29T15:33:41;5.23;;;1.90;;
11777;SDS011;5946;51.770;8.548;2022-12-29T15:36:26;5.20;;;1.83;;
11777;SDS011;5946;51.770;8.548;2022-12-29T15:38:53;8.05;;;1.90;;
11777;SDS011;5946;51.770;8.548;2022-12-29T15:44:24;5.23;;;1.70;;
11777;SDS011;5946;51.770;8.548;2022-12-29T15:46:51;4.50;;;1.67;;
11777;SDS011;5946;51.770;8.548;2022-12-29T15:49:17;7.13;;;1.83;;
11777;SDS011;5946;51.770;8.548;2022-12-29T15:51:43;7.13;;;1.90;;
11777;SDS011;5946;51.770;8.548;2022-12-29T15:54:17;9.03;;;1.80;;
11777;SDS011;5946;51.770;8.548;2022-12-29T15:56:44;7.00;;;2.10;;
11777;SDS011;5946;51.770;8.548;2022-12-29T15:59:27;6.27;;;1.60;;
11777;SDS011;5946;51.770;8.548;2022-12-29T16:01:54;6.70;;;1.70;;
11777;SDS011;5946;51.770;8.548;2022-12-29T16:04:20;6.00;;;2.10;;
11777;SDS011;5946;51.770;8.548;2022-12-29T16:07:05;7.33;;;1.80;;
11777;SDS011;5946;51.770;8.548;2022-12-29T16:09:33;3.13;;;1.60;;
11777;SDS011;5946;51.770;8.548;2022-12-29T16:12:04;6.43;;;1.60;;
11777;SDS011;5946;51.770;8.548;2022-12-29T16:14:37;3.47;;;1.57;;
11777;SDS011;5946;51.770;8.548;2022-12-29T16:17:06;4.73;;;1.37;;
11777;SDS011;5946;51.770;8.548;2022-12-29T16:19:33;4.23;;;1.50;;
11777;SDS011;5946;51.770;8.548;2022-12-29T16:22:00;5.23;;;1.67;;
11777;SDS011;5946;51.770;8.548;2022-12-29T16:24:29;8.23;;;1.30;;
11777;SDS011;5946;51.770;8.548;2022-12-29T16:26:58;7.47;;;2.17;;
11777;SDS011;5946;51.770;8.548;2022-12-29T16:29:25;7.13;;;1.77;;
11777;SDS011;5946;51.770;8.548;2022-12-29T16:31:56;5.77;;;1.80;;
11777;SDS011;5946;51.770;8.548;2022-12-29T16:37:00;4.10;;;1.50;;
11777;SDS011;5946;51.770;8.548;2022-12-29T16:39:34;4.17;;;1.50;;
11777;SDS011;5946;51.770;8.548;2022-12-29T16:42:01;4.23;;;1.30;;
11777;SDS011;5946;51.770;8.548;2022-12-29T16:44:47;2.93;;;1.23;;
11777;SDS011;5946;51.770;8.548;2022-12-29T16:49:39;3.17;;;1.10;;
11777;SDS011;5946;51.770;8.548;2022-12-29T16:52:38;5.83;;;2.27;;
11777;SDS011;5946;51.770;8.548;2022-12-29T16:54:58;9.20;;;3.20;;
11777;SDS011;5946;51.770;8.548;2022-12-29T16:57:30;5.37;;;2.27;;
11777;SDS011;5946;51.770;8.548;2022-12-29T17:00:00;4.07;;;1.40;;
11777;SDS011;5946;51.770;8.548;2022-12-29T17:02:28;4.07;;;1.20;;
11777;SDS011;5946;51.770;8.548;2022-12-29T17:04:55;3.40;;;1.40;;
11777;SDS011;5946;51.770;8.548;2022-12-29T17:07:22;3.87;;;1.37;;
11777;SDS011;5946;51.770;8.548;2022-12-29T17:09:48;3.50;;;1.20;;
11777;SDS011;5946;51.770;8.548;2022-12-29T17:12:17;2.03;;;1.10;;